Time;durP1;ratioP1;P1;durP2;ratioP2;P2;SDS_P1;SDS_P2;PMS_P1;PMS_P2;Temp;Humidity;BMP_temperature;BMP_pressure;BME280_temperature;BME280_humidity;BME280_pressure;Samples;Min_cycle;Max_cycle;Signal;HPM_P1;HPM_P2
2023/01/04 00:00:41;;;;;;;15.38;6.95;;;;;;;4.28;98.05;102050.38;4937051;29;20267;-73
2023/01/04 00:03:11;;;;;;;10.88;7.97;;;;;;;4.35;97.49;102043.53;4937372;29;20216;-73
2023/01/04 00:05:40;;;;;;;16.58;9.35;;;;;;;4.38;97.37;102041.41;4935901;29;20223;-74
2023/01/04 00:08:09;;;;;;;14.00;8.90;;;;;;;4.57;96.88;102024.56;4935846;29;20221;-72
2023/01/04 00:10:38;;;;;;;15.00;8.23;;;;;;;4.53;96.66;102020.47;4935093;29;20911;-75
2023/01/04 00:13:07;;;;;;;9.18;6.57;;;;;;;4.49;97.15;102020.88;4937294;29;20617;-74
2023/01/04 00:15:37;;;;;;;12.68;7.45;;;;;;;4.56;96.68;102014.81;4936232;29;20280;-73
2023/01/04 00:18:07;;;;;;;11.65;7.30;;;;;;;4.56;96.39;102009.47;4937496;29;20357;-75
2023/01/04 00:20:36;;;;;;;20.33;7.40;;;;;;;4.52;96.49;102005.34;4937091;29;20189;-74
2023/01/04 00:23:05;;;;;;;9.15;7.25;;;;;;;4.71;95.83;102013.47;4937217;29;20287;-72
2023/01/04 00:25:35;;;;;;;13.15;6.38;;;;;;;4.71;95.48;102002.72;4936918;29;20245;-74
2023/01/04 00:28:04;;;;;;;7.93;6.47;;;;;;;4.53;96.07;102004.38;4936493;29;20215;-74
2023/01/04 00:30:33;;;;;;;11.15;8.25;;;;;;;4.71;96.15;101996.50;4936560;29;20213;-74
2023/01/04 00:33:02;;;;;;;7.80;6.13;;;;;;;4.60;96.38;101989.44;4935815;29;20197;-74
2023/01/04 00:35:34;;;;;;;7.88;6.75;;;;;;;4.63;95.73;101978.44;4936414;29;20406;-72
2023/01/04 00:38:14;;;;;;;9.10;6.72;;;;;;;4.66;95.72;101983.53;4936965;29;20616;-72
2023/01/04 00:40:43;;;;;;;9.02;6.97;;;;;;;4.60;96.14;101972.53;4936967;29;20265;-75
2023/01/04 00:43:12;;;;;;;8.45;6.38;;;;;;;4.60;96.29;101967.97;4936573;29;20196;-74
2023/01/04 00:45:43;;;;;;;9.18;6.60;;;;;;;4.73;96.14;101952.50;4935350;29;20216;-73
2023/01/04 00:48:13;;;;;;;8.90;7.78;;;;;;;4.74;95.49;101959.53;4931218;29;20663;-74
2023/01/04 00:50:44;;;;;;;8.50;7.60;;;;;;;4.70;96.31;101960.81;4934822;29;20746;-72
2023/01/04 00:53:14;;;;;;;7.03;6.32;;;;;;;4.73;95.68;101947.13;4936405;29;20208;-73
2023/01/04 00:55:44;;;;;;;7.45;6.65;;;;;;;4.66;96.27;101940.63;4933975;29;20296;-72
2023/01/04 00:58:13;;;;;;;15.90;6.90;;;;;;;4.70;95.90;101931.31;4913598;29;20667;-73
2023/01/04 01:00:42;;;;;;;10.65;6.80;;;;;;;4.78;95.20;101922.59;4935627;29;20189;-74
2023/01/04 01:03:11;;;;;;;8.20;6.20;;;;;;;4.71;95.44;101922.28;4930461;29;20200;-72
2023/01/04 01:05:42;;;;;;;7.78;6.45;;;;;;;4.70;96.06;101914.38;4934679;29;20576;-73
2023/01/04 01:08:27;;;;;;;9.52;7.03;;;;;;;4.87;95.49;101923.56;4932094;29;20628;-73
2023/01/04 01:11:02;;;;;;;6.93;6.25;;;;;;;4.94;94.36;101916.69;4934166;29;20296;-73
2023/01/04 01:13:32;;;;;;;7.40;6.15;;;;;;;5.00;93.63;101921.44;4935021;29;20275;-74
2023/01/04 01:16:04;;;;;;;6.90;6.05;;;;;;;5.04;92.84;101923.72;4934621;29;20635;-75
2023/01/04 01:18:35;;;;;;;8.48;6.03;;;;;;;5.02;93.30;101912.28;4934699;29;20715;-74
2023/01/04 01:21:08;;;;;;;7.88;6.75;;;;;;;5.04;92.67;101902.25;4933722;29;20235;-75
2023/01/04 01:23:37;;;;;;;9.45;5.72;;;;;;;5.00;93.18;101902.66;4935750;29;20651;-72
2023/01/04 01:26:08;;;;;;;8.60;6.30;;;;;;;5.12;92.78;101907.78;4935114;29;20684;-74
2023/01/04 01:28:38;;;;;;;8.60;6.20;;;;;;;5.18;91.98;101898.31;4932490;29;20253;-74
2023/01/04 01:31:08;;;;;;;8.20;5.45;;;;;;;5.24;91.57;101908.44;4935274;29;20232;-73
2023/01/04 01:33:38;;;;;;;10.88;7.13;;;;;;;5.22;91.09;101907.75;4938649;29;20197;-74
2023/01/04 01:36:10;;;;;;;8.38;7.47;;;;;;;5.17;91.13;101912.72;4942986;29;20221;-75
2023/01/04 01:38:40;;;;;;;7.82;5.43;;;;;;;5.20;90.73;101907.03;4943090;29;20604;-75
2023/01/04 01:41:17;;;;;;;7.13;5.45;;;;;;;5.19;91.17;101916.06;4941270;29;20236;-72
2023/01/04 01:43:50;;;;;;;6.38;5.57;;;;;;;5.15;90.87;101920.88;4935668;29;20691;-74
2023/01/04 01:46:23;;;;;;;8.45;5.20;;;;;;;5.08;90.78;101919.75;4931123;29;20607;-74
2023/01/04 01:48:58;;;;;;;7.15;5.40;;;;;;;4.97;91.54;101919.06;4931380;29;20255;-74
2023/01/04 01:51:30;;;;;;;8.27;5.90;;;;;;;5.06;91.50;101924.44;4933823;29;20252;-72
2023/01/04 01:54:04;;;;;;;9.15;5.57;;;;;;;4.97;91.34;101927.13;4932842;29;20217;-74
2023/01/04 01:56:36;;;;;;;7.75;5.50;;;;;;;4.92;91.53;101930.22;4933260;29;20367;-73
2023/01/04 01:59:07;;;;;;;7.10;5.35;;;;;;;4.79;91.93;101916.25;4932932;29;20197;-72
2023/01/04 02:01:36;;;;;;;8.25;5.25;;;;;;;4.87;92.43;101911.00;4930644;29;20209;-72
2023/01/04 02:04:07;;;;;;;10.05;5.95;;;;;;;4.82;92.25;101913.28;4929590;29;20200;-74
2023/01/04 02:06:42;;;;;;;7.03;6.00;;;;;;;4.81;92.24;101901.69;4932169;29;20596;-72
2023/01/04 02:09:12;;;;;;;6.25;5.20;;;;;;;4.78;92.65;101903.81;4933126;29;20200;-74
2023/01/04 02:11:41;;;;;;;10.63;4.95;;;;;;;4.79;92.44;101887.56;4929472;29;20252;-73
2023/01/04 02:14:27;;;;;;;9.23;5.50;;;;;;;4.79;91.83;101882.19;4928760;29;20267;-73
2023/01/04 02:17:27;;;;;;;8.02;5.07;;;;;;;4.81;92.13;101858.78;4932621;29;20192;-74
2023/01/04 02:20:27;;;;;;;8.48;4.70;;;;;;;4.86;91.25;101849.47;4927479;29;20257;-71
2023/01/04 02:23:46;;;;;;;7.35;5.95;;;;;;;4.89;90.86;101833.09;4929840;29;20215;-72
2023/01/04 02:27:06;;;;;;;6.15;5.50;;;;;;;4.87;90.70;101824.34;4931015;29;20653;-73
2023/01/04 02:30:18;;;;;;;7.35;5.03;;;;;;;4.92;90.15;101819.41;4929806;29;20193;-71
2023/01/04 02:33:04;;;;;;;4.95;4.20;;;;;;;4.91;89.62;101810.50;4928469;29;20634;-72
2023/01/04 02:35:42;;;;;;;7.10;4.72;;;;;;;4.86;90.14;101802.03;4929704;29;20221;-72
2023/01/04 02:38:22;;;;;;;7.15;5.43;;;;;;;4.70;89.96;101802.59;4932175;29;20266;-75
2023/01/04 02:41:03;;;;;;;6.63;4.90;;;;;;;4.67;90.24;101786.81;4890096;29;1238771;-74
2023/01/04 02:46:46;;;;;;;6.50;4.85;;;;;;;4.55;91.42;101760.31;4892322;29;20202;-73
2023/01/04 02:52:03;;;;;;;8.30;5.75;;;;;;;4.48;92.42;101764.53;4902619;29;20295;-74
2023/01/04 02:54:33;;;;;;;7.18;5.75;;;;;;;4.46;91.80;101772.69;4935096;28;20216;-71
2023/01/04 02:57:15;;;;;;;5.15;4.40;;;;;;;4.35;91.93;101778.22;4939879;29;20276;-72
2023/01/04 03:00:23;;;;;;;8.52;5.20;;;;;;;4.33;92.80;101766.78;4937286;29;20188;-73
2023/01/04 03:06:15;;;;;;;6.75;5.05;;;;;;;4.34;92.60;101757.75;4935708;29;20212;-74
2023/01/04 03:08:54;;;;;;;7.25;5.40;;;;;;;4.32;92.36;101747.19;4933604;29;20207;-73
2023/01/04 03:14:20;;;;;;;6.75;5.63;;;;;;;4.21;92.81;101739.25;4934581;29;20271;-73
2023/01/04 03:17:06;;;;;;;9.27;6.22;;;;;;;4.15;93.41;101734.50;4936679;29;20196;-73
2023/01/04 03:19:53;;;;;;;8.00;5.82;;;;;;;4.13;93.36;101732.91;4937058;29;20516;-71
2023/01/04 03:36:52;;;;;;;7.40;5.53;;;;;;;4.18;93.46;101698.53;4934821;29;20220;-74
2023/01/04 03:48:30;;;;;;;6.53;5.07;;;;;;;4.36;92.98;101667.34;4947119;29;20204;-75
2023/01/04 03:51:13;;;;;;;7.28;5.50;;;;;;;4.27;93.16;101661.00;4942718;29;20266;-73
2023/01/04 03:53:55;;;;;;;9.63;5.28;;;;;;;4.16;93.94;101657.66;4939830;29;20213;-72
2023/01/04 03:56:29;;;;;;;6.68;4.38;;;;;;;4.23;93.68;101658.75;4942021;29;20215;-73
2023/01/04 03:58:59;;;;;;;6.10;5.28;;;;;;;4.08;93.83;101654.81;4941252;29;20189;-72
2023/01/04 04:01:29;;;;;;;7.13;5.95;;;;;;;4.18;93.87;101647.63;4943282;29;20201;-73
2023/01/04 04:09:32;;;;;;;7.40;6.35;;;;;;;4.23;93.66;101638.19;4937669;29;20201;-73
2023/01/04 04:12:03;;;;;;;7.18;5.57;;;;;;;4.29;93.43;101626.03;4936869;29;20260;-74
2023/01/04 04:14:32;;;;;;;8.35;5.85;;;;;;;4.22;93.33;101623.09;4935736;29;20217;-72
2023/01/04 04:17:01;;;;;;;8.52;5.72;;;;;;;4.24;93.45;101623.78;4936821;29;20221;-74
2023/01/04 04:19:30;;;;;;;5.80;4.97;;;;;;;4.25;93.03;101603.22;4937915;29;20256;-73
2023/01/04 04:21:59;;;;;;;7.10;4.80;;;;;;;4.26;93.68;101604.91;4938045;29;20228;-72
2023/01/04 04:24:29;;;;;;;8.57;5.43;;;;;;;4.20;93.44;101598.28;4937053;29;20224;-72
2023/01/04 04:26:58;;;;;;;9.50;6.43;;;;;;;4.22;93.58;101598.13;4919263;29;20212;-72
2023/01/04 04:29:28;;;;;;;6.78;5.30;;;;;;;4.26;93.60;101586.16;4936957;29;20193;-73
2023/01/04 04:31:58;;;;;;;8.05;6.00;;;;;;;4.26;93.47;101580.78;4920010;29;20244;-72
2023/01/04 04:34:27;;;;;;;7.85;5.82;;;;;;;4.10;93.67;101572.50;4936982;29;20707;-74
2023/01/04 04:36:56;;;;;;;6.25;5.03;;;;;;;4.21;93.98;101570.47;4935964;29;20244;-74
2023/01/04 04:39:25;;;;;;;10.48;6.05;;;;;;;4.26;93.63;101567.41;4918782;29;20228;-72
2023/01/04 04:41:53;;;;;;;11.32;6.15;;;;;;;4.23;93.76;101551.59;4919173;29;20239;-74
2023/01/04 04:44:23;;;;;;;6.10;5.50;;;;;;;4.33;93.57;101553.25;4935765;29;20220;-73
2023/01/04 04:46:53;;;;;;;7.13;6.22;;;;;;;4.24;93.66;101537.22;4935727;29;20204;-73
2023/01/04 04:49:22;;;;;;;13.45;5.70;;;;;;;4.28;94.42;101528.72;4935880;29;20610;-72
2023/01/04 04:51:52;;;;;;;7.90;5.75;;;;;;;4.44;93.10;101514.72;4935866;29;20328;-71
2023/01/04 04:54:22;;;;;;;10.30;7.05;;;;;;;4.48;93.08;101508.06;4936430;29;20763;-72
2023/01/04 04:56:51;;;;;;;7.72;5.53;;;;;;;4.51;92.71;101512.28;4947012;29;20196;-74
2023/01/04 04:59:20;;;;;;;9.68;5.70;;;;;;;4.57;92.42;101504.50;4942634;29;20201;-73
2023/01/04 05:01:49;;;;;;;6.32;5.00;;;;;;;4.60;91.94;101498.81;4925761;29;20208;-75
2023/01/04 05:04:20;;;;;;;9.57;5.50;;;;;;;4.63;91.78;101500.38;4946736;29;20223;-72
2023/01/04 05:06:51;;;;;;;7.47;6.03;;;;;;;4.57;91.69;101479.53;4947058;29;20197;-73
2023/01/04 05:09:21;;;;;;;8.63;5.43;;;;;;;4.51;92.31;101491.69;4937042;29;20224;-73
2023/01/04 05:17:46;;;;;;;6.82;5.63;;;;;;;4.73;91.42;101477.91;4881045;29;20199;-69
2023/01/04 05:20:17;;;;;;;8.85;5.45;;;;;;;4.73;90.98;101456.44;4887605;29;20247;-70
2023/01/04 05:22:46;;;;;;;5.90;5.05;;;;;;;4.71;91.42;101460.25;4884574;29;20201;-69
2023/01/04 05:25:28;;;;;;;8.25;5.88;;;;;;;4.84;90.99;101460.75;4880508;29;20230;-70
2023/01/04 05:27:58;;;;;;;5.78;4.80;;;;;;;4.85;90.96;101446.31;4879323;29;20223;-71
2023/01/04 05:33:14;;;;;;;7.47;4.85;;;;;;;4.78;90.95;101424.66;4881315;29;20274;-69
2023/01/04 05:35:44;;;;;;;5.55;5.00;;;;;;;4.89;90.96;101406.66;4878124;29;20219;-70
2023/01/04 05:38:14;;;;;;;10.73;5.05;;;;;;;5.01;90.12;101408.09;4883604;29;20226;-70
2023/01/04 05:40:43;;;;;;;5.30;4.80;;;;;;;5.04;90.21;101399.75;4879374;29;20216;-69
2023/01/04 05:43:13;;;;;;;5.93;5.32;;;;;;;5.05;89.41;101393.38;4879096;29;20203;-69
2023/01/04 05:45:47;;;;;;;9.63;4.55;;;;;;;5.11;89.80;101377.53;4879122;29;20317;-69
2023/01/04 05:48:16;;;;;;;9.57;4.78;;;;;;;5.23;88.99;101365.53;4879404;29;20203;-70
2023/01/04 05:50:47;;;;;;;5.80;5.22;;;;;;;5.17;89.41;101365.31;4877526;29;20246;-69
2023/01/04 05:53:17;;;;;;;6.38;4.25;;;;;;;5.18;89.59;101356.28;4893432;29;20298;-71
2023/01/04 05:55:48;;;;;;;7.28;5.07;;;;;;;5.17;89.44;101359.97;4878512;29;20219;-69
2023/01/04 05:58:18;;;;;;;5.55;4.68;;;;;;;5.27;88.53;101360.72;4873561;29;20191;-72
2023/01/04 06:00:47;;;;;;;5.43;4.55;;;;;;;5.33;88.52;101352.00;4886592;29;20737;-70
2023/01/04 06:03:16;;;;;;;7.05;5.15;;;;;;;5.41;88.35;101354.78;4879199;29;20738;-70
2023/01/04 06:05:50;;;;;;;7.03;4.10;;;;;;;5.34;88.48;101345.66;4880163;29;20223;-70
2023/01/04 06:08:20;;;;;;;7.28;4.75;;;;;;;5.45;87.93;101337.34;4878805;29;20202;-71
2023/01/04 06:10:53;;;;;;;5.82;4.63;;;;;;;5.43;87.85;101333.13;4892730;29;20305;-71
2023/01/04 06:13:22;;;;;;;6.13;5.03;;;;;;;5.41;87.77;101340.50;4878426;29;20686;-71
2023/01/04 06:15:52;;;;;;;4.85;4.03;;;;;;;5.41;87.88;101333.31;4878667;29;20669;-69
2023/01/04 06:18:21;;;;;;;5.32;4.82;;;;;;;5.43;87.95;101325.91;4878642;29;20323;-71
2023/01/04 06:20:53;;;;;;;7.18;5.05;;;;;;;5.54;87.73;101325.66;4871519;29;20194;-70
2023/01/04 06:23:22;;;;;;;8.48;4.78;;;;;;;5.69;86.76;101321.38;4878645;29;20242;-70
2023/01/04 06:25:51;;;;;;;5.32;4.35;;;;;;;5.67;86.42;101320.69;4883364;29;20271;-71
2023/01/04 06:28:20;;;;;;;5.63;5.10;;;;;;;5.69;86.19;101307.94;4883639;29;20592;-70
2023/01/04 06:30:49;;;;;;;7.60;5.65;;;;;;;5.69;86.34;101302.59;4881007;29;20198;-70
2023/01/04 06:33:19;;;;;;;5.95;4.55;;;;;;;5.72;86.24;101290.66;4881321;29;20253;-72
2023/01/04 06:35:56;;;;;;;6.38;4.13;;;;;;;5.78;86.20;101291.88;4881035;29;20223;-71
2023/01/04 06:38:25;;;;;;;6.75;4.10;;;;;;;5.77;85.77;101274.06;4881589;29;20195;-71
2023/01/04 06:40:54;;;;;;;6.18;4.43;;;;;;;5.84;85.83;101283.16;4880078;29;20194;-71
2023/01/04 06:43:24;;;;;;;6.90;4.05;;;;;;;5.82;85.61;101279.78;4879496;29;20612;-71
2023/01/04 06:45:53;;;;;;;4.65;3.28;;;;;;;5.89;85.20;101267.44;4901483;29;20235;-70
2023/01/04 06:48:22;;;;;;;5.32;3.80;;;;;;;5.93;85.19;101260.75;4879127;29;20207;-72
2023/01/04 06:50:51;;;;;;;5.55;3.60;;;;;;;6.10;84.35;101267.81;4878801;29;20187;-71
2023/01/04 06:53:22;;;;;;;3.75;3.45;;;;;;;6.08;84.08;101251.88;4876887;29;20262;-72
2023/01/04 06:55:51;;;;;;;3.55;3.13;;;;;;;6.18;83.58;101254.44;4878312;29;20305;-70
2023/01/04 06:58:20;;;;;;;9.38;3.97;;;;;;;6.20;83.17;101247.03;4878579;29;20195;-71
2023/01/04 07:00:51;;;;;;;4.78;3.25;;;;;;;6.34;82.49;101242.88;4878237;29;20228;-70
2023/01/04 07:03:21;;;;;;;3.58;2.53;;;;;;;6.38;82.23;101228.94;4878387;29;20210;-70
2023/01/04 07:05:50;;;;;;;4.32;2.92;;;;;;;6.46;81.88;101231.63;4878091;29;20222;-68
2023/01/04 07:08:21;;;;;;;8.35;2.83;;;;;;;6.50;81.59;101226.72;4878282;29;20250;-71
2023/01/04 07:10:51;;;;;;;5.32;3.35;;;;;;;6.53;81.38;101237.19;4878282;29;20226;-70
2023/01/04 07:13:20;;;;;;;3.83;2.10;;;;;;;6.50;81.78;101230.25;4878301;29;20273;-71
2023/01/04 07:15:49;;;;;;;6.30;4.20;;;;;;;6.73;81.51;101226.91;4875059;29;20257;-70
2023/01/04 07:18:18;;;;;;;5.75;3.15;;;;;;;6.66;82.26;101220.53;4859022;29;20209;-71
2023/01/04 07:20:48;;;;;;;5.45;3.10;;;;;;;6.63;83.56;101208.28;4875821;29;20635;-69
2023/01/04 07:23:17;;;;;;;6.43;3.28;;;;;;;6.60;83.49;101196.97;4863182;29;20203;-71
2023/01/04 07:25:47;;;;;;;6.65;3.38;;;;;;;6.52;84.02;101198.69;4859312;29;20324;-70
2023/01/04 07:29:13;;;;;;;4.03;2.63;;;;;;;6.51;84.81;101197.00;4859306;29;20188;-71
2023/01/04 07:31:07;;;;;;;8.25;4.07;;;;;;;6.37;86.90;101194.16;4853279;29;20231;-71
2023/01/04 07:33:37;;;;;;;5.32;2.58;;;;;;;6.42;87.03;101189.09;4859544;29;20212;-70
2023/01/04 07:36:07;;;;;;;5.95;3.00;;;;;;;6.41;87.77;101185.56;4860424;29;20298;-71
2023/01/04 07:38:36;;;;;;;3.03;2.40;;;;;;;6.32;88.51;101175.00;4864003;29;20215;-70
2023/01/04 07:41:07;;;;;;;4.30;3.00;;;;;;;6.35;88.78;101178.16;4864894;29;20208;-70
2023/01/04 07:43:36;;;;;;;6.32;3.10;;;;;;;6.32;89.71;101175.00;4861755;29;20203;-70
2023/01/04 07:46:05;;;;;;;4.00;3.05;;;;;;;6.23;90.37;101171.47;4862949;29;20247;-71
2023/01/04 07:48:34;;;;;;;6.60;2.83;;;;;;;6.25;91.82;101158.69;4863264;29;20282;-70
2023/01/04 07:51:03;;;;;;;5.28;2.80;;;;;;;6.24;92.29;101154.34;4860459;29;20222;-70
2023/01/04 07:53:34;;;;;;;7.85;2.83;;;;;;;6.31;93.27;101149.97;4861836;29;20203;-69
2023/01/04 07:56:03;;;;;;;4.88;2.85;;;;;;;6.34;93.50;101136.16;4864518;29;20686;-70
2023/01/04 07:58:34;;;;;;;5.00;3.10;;;;;;;6.22;94.04;101128.63;4863451;29;20231;-70
2023/01/04 08:01:07;;;;;;;3.95;2.95;;;;;;;6.27;94.93;101128.97;4863638;29;20698;-70
2023/01/04 08:03:37;;;;;;;3.92;2.97;;;;;;;6.27;95.22;101112.84;4850373;29;20271;-71
2023/01/04 08:06:07;;;;;;;7.10;3.20;;;;;;;6.26;95.39;101122.75;4862994;29;20709;-70
2023/01/04 08:08:37;;;;;;;2.90;2.70;;;;;;;6.28;96.75;101115.38;4862812;29;20278;-70
2023/01/04 08:11:07;;;;;;;7.55;3.55;;;;;;;6.27;97.06;101102.94;4862339;29;20294;-71
2023/01/04 08:13:38;;;;;;;5.38;3.42;;;;;;;6.32;97.41;101097.03;4865031;29;20553;-71
2023/01/04 08:16:08;;;;;;;5.55;2.90;;;;;;;6.31;97.62;101089.97;4861473;29;20230;-72
2023/01/04 08:18:37;;;;;;;4.00;2.40;;;;;;;6.27;97.93;101080.59;4862926;29;20278;-72
2023/01/04 08:21:08;;;;;;;5.40;2.88;;;;;;;6.37;97.86;101082.09;4862876;29;20282;-71
2023/01/04 08:23:38;;;;;;;5.95;3.17;;;;;;;6.33;98.09;101085.28;4864630;29;20206;-72
2023/01/04 08:26:09;;;;;;;7.65;2.95;;;;;;;6.34;98.75;101087.78;4878126;29;20224;-70
2023/01/04 08:28:41;;;;;;;8.20;3.05;;;;;;;6.38;99.11;101093.69;4870422;29;20219;-73
2023/01/04 08:31:13;;;;;;;5.50;3.28;;;;;;;6.34;100.00;101087.78;4868541;29;20207;-72
2023/01/04 08:33:43;;;;;;;6.00;3.28;;;;;;;6.50;100.00;101085.09;4868164;29;20663;-71
2023/01/04 08:36:17;;;;;;;9.93;2.72;;;;;;;6.46;100.00;101070.31;4862191;29;20191;-71
2023/01/04 08:38:56;;;;;;;7.13;3.47;;;;;;;6.57;100.00;101062.91;4862317;29;20207;-70
2023/01/04 08:41:30;;;;;;;5.78;3.00;;;;;;;6.51;100.00;101067.94;4862282;29;20198;-71
2023/01/04 08:44:22;;;;;;;8.57;3.75;;;;;;;6.60;100.00;101065.22;4862085;29;20290;-71
2023/01/04 08:46:53;;;;;;;3.85;3.20;;;;;;;6.59;100.00;101063.53;4862165;29;20739;-71
2023/01/04 08:49:23;;;;;;;5.90;2.53;;;;;;;6.62;99.78;101047.94;4861638;29;20692;-72
2023/01/04 08:51:53;;;;;;;4.43;3.03;;;;;;;6.73;100.00;101054.78;4862105;29;20640;-70
2023/01/04 08:54:22;;;;;;;6.63;5.18;;;;;;;6.69;100.00;101058.81;4861467;29;20219;-71
2023/01/04 08:56:51;;;;;;;4.50;3.05;;;;;;;6.73;100.00;101065.53;4861882;29;20203;-71
2023/01/04 08:59:22;;;;;;;7.55;2.90;;;;;;;6.73;100.00;101060.16;4858312;29;20202;-71
2023/01/04 09:01:51;;;;;;;10.77;4.05;;;;;;;6.74;100.00;101053.75;4861742;29;20195;-71
2023/01/04 09:04:21;;;;;;;7.30;3.58;;;;;;;6.75;100.00;101052.75;4861488;29;20219;-72
2023/01/04 09:06:50;;;;;;;4.32;2.80;;;;;;;6.78;100.00;101053.22;4861919;29;20255;-71
2023/01/04 09:09:19;;;;;;;3.30;2.72;;;;;;;6.81;100.00;101054.75;4861660;29;20385;-72
2023/01/04 09:11:48;;;;;;;5.07;3.13;;;;;;;6.80;100.00;101056.59;4861341;29;20203;-71
2023/01/04 09:14:17;;;;;;;3.35;3.05;;;;;;;6.79;100.00;101044.16;4861543;29;20242;-71
2023/01/04 09:16:48;;;;;;;7.78;4.53;;;;;;;6.81;100.00;101035.91;4874588;29;20206;-70
2023/01/04 09:19:17;;;;;;;5.45;3.53;;;;;;;6.82;100.00;101034.91;4890360;29;20233;-70
2023/01/04 09:21:50;;;;;;;6.22;3.38;;;;;;;6.87;100.00;101033.34;4879939;29;20191;-70
2023/01/04 09:24:20;;;;;;;7.75;4.85;;;;;;;6.91;100.00;101025.78;4875470;29;20577;-71
2023/01/04 09:26:49;;;;;;;4.20;3.15;;;;;;;6.97;100.00;101019.72;4878831;29;20222;-72
2023/01/04 09:29:18;;;;;;;4.38;3.47;;;;;;;7.00;100.00;101019.34;4879686;29;20587;-68
2023/01/04 09:31:48;;;;;;;8.50;5.53;;;;;;;7.10;100.00;101009.22;4879862;29;20366;-72
2023/01/04 09:34:18;;;;;;;4.22;3.22;;;;;;;6.99;100.00;101002.38;4879644;29;20297;-72
2023/01/04 09:36:48;;;;;;;4.75;3.60;;;;;;;7.02;100.00;100994.97;4879868;29;20214;-70
2023/01/04 09:39:18;;;;;;;3.65;3.35;;;;;;;7.08;100.00;100995.09;4879592;29;20757;-70
2023/01/04 09:41:57;;;;;;;5.53;3.47;;;;;;;7.13;100.00;100978.41;4872134;29;20289;-71
2023/01/04 09:44:38;;;;;;;5.57;3.50;;;;;;;7.08;100.00;100981.63;4879295;29;20227;-71
2023/01/04 09:47:35;;;;;;;8.20;4.35;;;;;;;7.08;100.00;100972.72;4877265;29;20194;-71
2023/01/04 09:50:12;;;;;;;5.63;3.53;;;;;;;7.04;100.00;100976.78;4879047;29;20195;-72
2023/01/04 09:52:51;;;;;;;4.30;3.28;;;;;;;7.01;100.00;100969.91;4879635;29;20737;-71
2023/01/04 09:55:26;;;;;;;5.63;3.65;;;;;;;7.06;100.00;100967.53;4879481;29;20222;-70
2023/01/04 09:58:23;;;;;;;8.40;3.88;;;;;;;7.14;100.00;100951.31;4879424;29;20215;-72
2023/01/04 10:00:59;;;;;;;7.60;4.65;;;;;;;7.10;100.00;100950.00;4879087;29;20681;-72
2023/01/04 10:03:33;;;;;;;5.13;3.85;;;;;;;7.18;100.00;100941.88;4879056;29;20209;-71
2023/01/04 10:06:05;;;;;;;4.45;3.72;;;;;;;7.15;100.00;100939.53;4873151;29;20221;-72
2023/01/04 10:08:36;;;;;;;6.15;4.03;;;;;;;7.26;100.00;100931.03;4879742;29;20230;-71
2023/01/04 10:11:17;;;;;;;7.72;4.70;;;;;;;7.22;100.00;100926.19;4882298;29;20190;-72
2023/01/04 10:14:02;;;;;;;4.93;3.70;;;;;;;7.12;100.00;100915.66;4889213;29;20624;-70
2023/01/04 10:16:53;;;;;;;3.15;2.85;;;;;;;7.14;100.00;100915.50;4879170;29;20221;-71
2023/01/04 10:20:01;;;;;;;3.55;3.10;;;;;;;7.08;100.00;100908.13;4879855;29;20207;-72
2023/01/04 10:22:57;;;;;;;4.90;3.40;;;;;;;7.18;100.00;100897.97;4878884;29;20199;-71
2023/01/04 10:25:36;;;;;;;7.18;5.75;;;;;;;7.29;100.00;100878.72;4878729;29;20229;-72
2023/01/04 10:28:21;;;;;;;4.30;3.38;;;;;;;7.23;100.00;100885.66;4878685;29;20285;-72
2023/01/04 10:31:00;;;;;;;4.82;3.30;;;;;;;7.25;100.00;100867.47;4878832;29;20289;-72
2023/01/04 10:33:53;;;;;;;4.43;3.20;;;;;;;7.36;100.00;100868.88;4878287;29;20205;-71
2023/01/04 10:36:30;;;;;;;8.50;4.07;;;;;;;7.35;100.00;100873.44;4878709;29;20199;-71
2023/01/04 10:39:04;;;;;;;7.20;4.50;;;;;;;7.38;100.00;100870.38;4877046;29;20222;-71
2023/01/04 10:41:40;;;;;;;5.05;3.85;;;;;;;7.40;100.00;100867.53;4878433;29;20199;-70
2023/01/04 10:44:17;;;;;;;10.05;5.55;;;;;;;7.37;100.00;100857.94;4878525;29;20684;-71
2023/01/04 10:46:54;;;;;;;6.82;3.85;;;;;;;7.39;100.00;100847.84;4880319;29;20191;-71
2023/01/04 10:49:29;;;;;;;7.40;3.78;;;;;;;7.45;100.00;100848.97;4878224;29;20233;-71
2023/01/04 10:52:06;;;;;;;6.00;3.70;;;;;;;7.52;100.00;100846.34;4878679;29;20289;-71
2023/01/04 10:54:42;;;;;;;4.82;3.42;;;;;;;7.45;100.00;100840.03;4875437;29;20925;-71
2023/01/04 10:57:18;;;;;;;5.00;3.80;;;;;;;7.47;100.00;100833.44;4878643;29;20289;-70
2023/01/04 10:59:53;;;;;;;5.95;3.42;;;;;;;7.48;100.00;100823.50;4878508;29;20254;-72
2023/01/04 11:02:28;;;;;;;4.78;3.88;;;;;;;7.47;100.00;100827.22;4878201;29;20233;-72
2023/01/04 11:05:04;;;;;;;5.93;4.03;;;;;;;7.43;100.00;100824.91;4878714;29;20245;-71
2023/01/04 11:07:41;;;;;;;4.97;3.25;;;;;;;7.45;100.00;100815.81;4879015;29;20218;-72
2023/01/04 11:10:15;;;;;;;10.55;4.53;;;;;;;7.56;100.00;100809.94;4898581;29;20206;-72
2023/01/04 11:12:45;;;;;;;6.32;3.75;;;;;;;7.52;100.00;100797.88;4908761;23;20197;-74
2023/01/04 11:15:14;;;;;;;5.68;3.60;;;;;;;7.64;100.00;100797.25;4915507;29;20217;-74
2023/01/04 11:17:45;;;;;;;4.93;3.38;;;;;;;7.72;100.00;100799.84;4915818;29;20211;-73
2023/01/04 11:20:14;;;;;;;6.30;3.88;;;;;;;7.73;100.00;100790.75;4918190;29;20209;-74
2023/01/04 11:22:54;;;;;;;5.47;4.35;;;;;;;7.67;100.00;100786.09;4919163;29;20201;-75
2023/01/04 11:25:24;;;;;;;7.50;4.20;;;;;;;7.75;100.00;100795.94;4913747;29;20739;-74
2023/01/04 11:28:16;;;;;;;9.65;3.58;;;;;;;7.84;100.00;100786.75;4916621;29;20198;-74
2023/01/04 11:30:56;;;;;;;4.63;4.15;;;;;;;7.86;100.00;100780.16;4915936;29;20201;-74
2023/01/04 11:33:26;;;;;;;4.53;3.58;;;;;;;7.95;100.00;100769.25;4917620;29;20736;-71
2023/01/04 11:35:58;;;;;;;8.82;5.20;;;;;;;7.91;100.00;100767.97;4915031;29;20686;-73
2023/01/04 11:38:30;;;;;;;4.97;3.67;;;;;;;8.03;100.00;100774.56;4917318;29;20578;-74
2023/01/04 11:41:01;;;;;;;10.45;5.25;;;;;;;7.89;100.00;100757.38;4917059;29;20223;-74
2023/01/04 11:43:32;;;;;;;9.98;4.93;;;;;;;8.00;100.00;100754.19;4917045;29;20293;-72
2023/01/04 11:46:04;;;;;;;9.07;4.70;;;;;;;8.07;100.00;100752.44;4915469;29;20212;-75
2023/01/04 11:48:40;;;;;;;12.27;5.20;;;;;;;7.96;100.00;100744.84;4918227;29;20209;-73
2023/01/04 11:51:33;;;;;;;6.00;3.95;;;;;;;8.02;100.00;100730.59;4920246;29;20204;-75
2023/01/04 11:54:06;;;;;;;4.85;4.45;;;;;;;8.05;100.00;100730.22;4918186;29;20197;-73
2023/01/04 11:56:37;;;;;;;5.68;4.28;;;;;;;8.08;100.00;100724.47;4916234;29;20213;-73
2023/01/04 11:59:15;;;;;;;5.32;3.63;;;;;;;8.08;100.00;100719.06;4917664;29;20189;-73
2023/01/04 12:02:11;;;;;;;7.57;4.53;;;;;;;8.16;100.00;100712.72;4918333;29;20589;-73
2023/01/04 12:05:00;;;;;;;11.18;5.00;;;;;;;8.23;100.00;100711.75;4899986;29;20217;-74
2023/01/04 12:07:31;;;;;;;3.97;3.28;;;;;;;8.14;100.00;100707.50;4917059;29;20217;-72
2023/01/04 12:10:13;;;;;;;4.55;3.70;;;;;;;8.22;100.00;100691.25;4901937;29;20197;-75
2023/01/04 12:12:42;;;;;;;8.93;4.45;;;;;;;8.23;100.00;100702.81;4906468;29;20221;-74
2023/01/04 12:15:20;;;;;;;12.82;5.28;;;;;;;8.32;100.00;100692.81;4916389;29;20217;-72
2023/01/04 12:17:56;;;;;;;7.45;4.82;;;;;;;8.26;100.00;100697.91;4907732;29;20587;-73
2023/01/04 12:20:28;;;;;;;5.78;3.50;;;;;;;8.28;100.00;100695.84;4916231;29;20189;-74
2023/01/04 12:22:57;;;;;;;5.10;3.97;;;;;;;8.30;100.00;100690.28;4914429;29;20198;-71
2023/01/04 12:25:35;;;;;;;4.50;3.75;;;;;;;8.32;100.00;100677.47;4911388;29;20772;-73
2023/01/04 12:28:05;;;;;;;10.10;5.03;;;;;;;8.20;100.00;100676.25;4913340;29;20196;-73
2023/01/04 12:30:37;;;;;;;8.13;4.20;;;;;;;8.23;100.00;100668.63;4915730;29;20245;-74
2023/01/04 12:33:39;;;;;;;6.78;6.10;;;;;;;8.20;100.00;100669.00;4918632;29;20197;-73
2023/01/04 12:36:09;;;;;;;4.13;3.60;;;;;;;8.30;100.00;100666.03;4911527;29;20221;-71
2023/01/04 12:39:01;;;;;;;6.63;4.65;;;;;;;8.41;100.00;100662.00;4921284;29;20380;-74
2023/01/04 12:42:14;;;;;;;8.85;4.53;;;;;;;8.30;100.00;100657.94;4930214;29;20198;-74
2023/01/04 12:45:20;;;;;;;7.68;3.78;;;;;;;8.45;100.00;100641.69;4928366;29;20315;-73
2023/01/04 12:51:22;;;;;;;5.93;4.55;;;;;;;8.39;100.00;100645.16;4932519;29;20207;-74
2023/01/04 12:54:03;;;;;;;4.28;3.88;;;;;;;8.28;100.00;100625.75;4928202;29;20687;-72